sensor_id;sensor_type;location;lat;lon;timestamp;P1;durP1;ratioP1;P2;durP2;ratioP2
34353;SDS011;20618;0.000;0.000;2023-09-19T00:00:45;4.72;;;1.73;;
34353;SDS011;20618;0.000;0.000;2023-09-19T00:03:14;5.45;;;2.10;;
34353;SDS011;20618;0.000;0.000;2023-09-19T00:05:41;6.13;;;1.90;;
34353;SDS011;20618;0.000;0.000;2023-09-19T00:08:10;8.38;;;2.25;;
34353;SDS011;20618;0.000;0.000;2023-09-19T00:10:38;6.93;;;1.95;;
34353;SDS011;20618;0.000;0.000;2023-09-19T00:13:06;5.00;;;2.20;;
34353;SDS011;20618;0.000;0.000;2023-09-19T00:15:36;6.82;;;2.08;;
34353;SDS011;20618;0.000;0.000;2023-09-19T00:18:03;4.22;;;2.10;;
34353;SDS011;20618;0.000;0.000;2023-09-19T00:20:31;4.63;;;1.88;;
34353;SDS011;20618;0.000;0.000;2023-09-19T00:23:00;5.78;;;2.10;;
34353;SDS011;20618;0.000;0.000;2023-09-19T00:25:33;6.53;;;2.25;;
34353;SDS011;20618;0.000;0.000;2023-09-19T00:28:00;8.02;;;1.85;;
34353;SDS011;20618;0.000;0.000;2023-09-19T00:30:26;6.15;;;1.95;;
34353;SDS011;20618;0.000;0.000;2023-09-19T00:32:53;6.63;;;1.80;;
34353;SDS011;20618;0.000;0.000;2023-09-19T00:35:20;11.60;;;2.53;;
34353;SDS011;20618;0.000;0.000;2023-09-19T00:37:49;6.45;;;1.95;;
34353;SDS011;20618;0.000;0.000;2023-09-19T00:40:15;6.53;;;1.80;;
34353;SDS011;20618;0.000;0.000;2023-09-19T00:42:42;6.05;;;1.50;;
34353;SDS011;20618;0.000;0.000;2023-09-19T00:45:09;5.50;;;1.85;;
34353;SDS011;20618;0.000;0.000;2023-09-19T00:47:39;5.90;;;1.98;;
34353;SDS011;20618;0.000;0.000;2023-09-19T00:50:06;6.68;;;1.67;;
34353;SDS011;20618;0.000;0.000;2023-09-19T00:52:35;5.43;;;1.60;;
34353;SDS011;20618;0.000;0.000;2023-09-19T00:55:06;6.60;;;1.90;;
34353;SDS011;20618;0.000;0.000;2023-09-19T00:57:33;4.93;;;2.10;;
34353;SDS011;20618;0.000;0.000;2023-09-19T00:59:59;6.80;;;1.92;;
34353;SDS011;20618;0.000;0.000;2023-09-19T01:02:30;6.07;;;2.20;;
34353;SDS011;20618;0.000;0.000;2023-09-19T01:04:57;4.55;;;1.80;;
34353;SDS011;20618;0.000;0.000;2023-09-19T01:07:23;6.68;;;1.85;;
34353;SDS011;20618;0.000;0.000;2023-09-19T01:09:49;6.15;;;1.65;;
34353;SDS011;20618;0.000;0.000;2023-09-19T01:12:17;5.68;;;2.10;;
34353;SDS011;20618;0.000;0.000;2023-09-19T01:14:54;6.00;;;2.00;;
34353;SDS011;20618;0.000;0.000;2023-09-19T01:17:27;5.95;;;1.90;;
34353;SDS011;20618;0.000;0.000;2023-09-19T01:22:35;5.25;;;1.80;;
34353;SDS011;20618;0.000;0.000;2023-09-19T01:30:17;4.53;;;1.60;;
34353;SDS011;20618;0.000;0.000;2023-09-19T01:32:44;7.30;;;1.90;;
34353;SDS011;20618;0.000;0.000;2023-09-19T01:35:11;3.78;;;1.75;;
34353;SDS011;20618;0.000;0.000;2023-09-19T01:37:38;4.22;;;1.52;;
34353;SDS011;20618;0.000;0.000;2023-09-19T01:40:04;5.20;;;1.83;;
34353;SDS011;20618;0.000;0.000;2023-09-19T01:45:12;5.72;;;1.95;;
34353;SDS011;20618;0.000;0.000;2023-09-19T01:47:48;7.38;;;1.88;;
34353;SDS011;20618;0.000;0.000;2023-09-19T01:50:19;4.47;;;1.73;;
34353;SDS011;20618;0.000;0.000;2023-09-19T01:52:53;5.32;;;1.63;;
34353;SDS011;20618;0.000;0.000;2023-09-19T01:55:20;4.90;;;1.60;;
34353;SDS011;20618;0.000;0.000;2023-09-19T01:58:48;5.13;;;1.98;;
34353;SDS011;20618;0.000;0.000;2023-09-19T02:00:43;7.38;;;2.10;;
34353;SDS011;20618;0.000;0.000;2023-09-19T02:03:10;4.60;;;1.95;;
34353;SDS011;20618;0.000;0.000;2023-09-19T02:05:37;6.47;;;1.98;;
34353;SDS011;20618;0.000;0.000;2023-09-19T02:08:04;4.50;;;1.90;;
34353;SDS011;20618;0.000;0.000;2023-09-19T02:10:30;6.00;;;2.30;;
34353;SDS011;20618;0.000;0.000;2023-09-19T02:12:57;5.43;;;2.13;;
34353;SDS011;20618;0.000;0.000;2023-09-19T02:15:24;6.38;;;1.90;;
34353;SDS011;20618;0.000;0.000;2023-09-19T02:17:50;5.85;;;1.80;;
34353;SDS011;20618;0.000;0.000;2023-09-19T02:20:16;5.65;;;1.90;;
34353;SDS011;20618;0.000;0.000;2023-09-19T02:22:45;3.72;;;1.45;;
34353;SDS011;20618;0.000;0.000;2023-09-19T02:25:11;6.35;;;1.65;;
34353;SDS011;20618;0.000;0.000;2023-09-19T02:27:38;4.65;;;1.70;;
34353;SDS011;20618;0.000;0.000;2023-09-19T02:30:05;3.83;;;1.63;;
34353;SDS011;20618;0.000;0.000;2023-09-19T02:32:31;3.13;;;1.38;;
34353;SDS011;20618;0.000;0.000;2023-09-19T02:35:00;4.88;;;2.00;;
34353;SDS011;20618;0.000;0.000;2023-09-19T02:37:27;5.00;;;1.75;;
34353;SDS011;20618;0.000;0.000;2023-09-19T02:39:53;5.53;;;1.90;;
34353;SDS011;20618;0.000;0.000;2023-09-19T02:42:20;5.82;;;1.75;;
34353;SDS011;20618;0.000;0.000;2023-09-19T02:44:46;4.57;;;1.88;;
34353;SDS011;20618;0.000;0.000;2023-09-19T02:47:13;5.90;;;1.83;;
34353;SDS011;20618;0.000;0.000;2023-09-19T02:49:40;5.00;;;1.73;;
34353;SDS011;20618;0.000;0.000;2023-09-19T02:52:07;3.85;;;1.60;;
34353;SDS011;20618;0.000;0.000;2023-09-19T02:54:34;4.60;;;2.00;;
34353;SDS011;20618;0.000;0.000;2023-09-19T02:57:00;6.65;;;2.20;;
34353;SDS011;20618;0.000;0.000;2023-09-19T02:59:26;5.65;;;2.15;;
34353;SDS011;20618;0.000;0.000;2023-09-19T03:01:53;5.68;;;1.90;;
34353;SDS011;20618;0.000;0.000;2023-09-19T03:04:19;5.35;;;1.95;;
34353;SDS011;20618;0.000;0.000;2023-09-19T03:06:46;5.47;;;1.80;;
34353;SDS011;20618;0.000;0.000;2023-09-19T03:09:14;7.55;;;1.88;;
34353;SDS011;20618;0.000;0.000;2023-09-19T03:11:41;6.28;;;1.90;;
34353;SDS011;20618;0.000;0.000;2023-09-19T03:14:07;4.50;;;2.00;;
34353;SDS011;20618;0.000;0.000;2023-09-19T03:16:35;4.47;;;1.90;;
34353;SDS011;20618;0.000;0.000;2023-09-19T03:19:03;5.57;;;2.13;;
34353;SDS011;20618;0.000;0.000;2023-09-19T03:21:29;5.88;;;1.65;;
34353;SDS011;20618;0.000;0.000;2023-09-19T03:23:55;5.32;;;1.92;;
34353;SDS011;20618;0.000;0.000;2023-09-19T03:26:21;4.43;;;1.90;;
34353;SDS011;20618;0.000;0.000;2023-09-19T03:28:47;4.72;;;1.70;;
34353;SDS011;20618;0.000;0.000;2023-09-19T03:31:14;6.65;;;1.83;;
34353;SDS011;20618;0.000;0.000;2023-09-19T03:33:40;4.40;;;1.80;;
34353;SDS011;20618;0.000;0.000;2023-09-19T03:36:06;5.68;;;1.60;;
34353;SDS011;20618;0.000;0.000;2023-09-19T03:38:32;5.40;;;1.63;;
34353;SDS011;20618;0.000;0.000;2023-09-19T03:40:59;6.60;;;2.38;;
34353;SDS011;20618;0.000;0.000;2023-09-19T03:43:26;4.95;;;1.65;;
34353;SDS011;20618;0.000;0.000;2023-09-19T03:45:53;4.88;;;1.95;;
34353;SDS011;20618;0.000;0.000;2023-09-19T03:50:48;6.80;;;1.70;;
34353;SDS011;20618;0.000;0.000;2023-09-19T03:53:15;6.85;;;1.80;;
34353;SDS011;20618;0.000;0.000;2023-09-19T03:55:41;6.22;;;2.08;;
34353;SDS011;20618;0.000;0.000;2023-09-19T03:58:07;5.63;;;2.03;;
34353;SDS011;20618;0.000;0.000;2023-09-19T04:00:33;7.53;;;2.38;;
34353;SDS011;20618;0.000;0.000;2023-09-19T04:02:59;7.07;;;1.65;;
34353;SDS011;20618;0.000;0.000;2023-09-19T04:05:30;5.88;;;2.28;;
34353;SDS011;20618;0.000;0.000;2023-09-19T04:07:56;5.95;;;1.80;;
34353;SDS011;20618;0.000;0.000;2023-09-19T04:10:22;5.07;;;1.52;;
34353;SDS011;20618;0.000;0.000;2023-09-19T04:12:55;5.68;;;2.08;;
34353;SDS011;20618;0.000;0.000;2023-09-19T04:15:23;5.25;;;1.63;;
34353;SDS011;20618;0.000;0.000;2023-09-19T04:17:49;5.32;;;1.70;;
34353;SDS011;20618;0.000;0.000;2023-09-19T04:20:16;4.05;;;1.60;;
34353;SDS011;20618;0.000;0.000;2023-09-19T04:22:44;3.97;;;1.60;;
34353;SDS011;20618;0.000;0.000;2023-09-19T04:25:11;4.05;;;1.67;;
34353;SDS011;20618;0.000;0.000;2023-09-19T04:27:37;5.70;;;1.95;;
34353;SDS011;20618;0.000;0.000;2023-09-19T04:30:04;7.30;;;2.00;;
34353;SDS011;20618;0.000;0.000;2023-09-19T04:32:35;6.72;;;1.77;;
34353;SDS011;20618;0.000;0.000;2023-09-19T04:35:03;4.90;;;1.67;;
34353;SDS011;20618;0.000;0.000;2023-09-19T04:37:31;5.68;;;1.80;;
34353;SDS011;20618;0.000;0.000;2023-09-19T04:39:58;4.10;;;1.58;;
34353;SDS011;20618;0.000;0.000;2023-09-19T04:42:24;3.58;;;1.70;;
34353;SDS011;20618;0.000;0.000;2023-09-19T04:44:50;4.82;;;1.70;;
34353;SDS011;20618;0.000;0.000;2023-09-19T04:47:18;3.75;;;1.65;;
34353;SDS011;20618;0.000;0.000;2023-09-19T04:49:44;4.13;;;1.50;;
34353;SDS011;20618;0.000;0.000;2023-09-19T04:52:10;4.03;;;1.50;;
34353;SDS011;20618;0.000;0.000;2023-09-19T04:54:36;4.53;;;1.67;;
34353;SDS011;20618;0.000;0.000;2023-09-19T04:57:03;4.28;;;1.70;;
34353;SDS011;20618;0.000;0.000;2023-09-19T04:59:31;3.13;;;1.67;;
34353;SDS011;20618;0.000;0.000;2023-09-19T05:01:57;6.05;;;1.90;;
34353;SDS011;20618;0.000;0.000;2023-09-19T05:04:23;8.25;;;1.90;;
34353;SDS011;20618;0.000;0.000;2023-09-19T05:06:49;4.90;;;2.03;;
34353;SDS011;20618;0.000;0.000;2023-09-19T05:09:16;3.70;;;1.73;;
34353;SDS011;20618;0.000;0.000;2023-09-19T05:11:45;4.40;;;1.65;;
34353;SDS011;20618;0.000;0.000;2023-09-19T05:14:11;4.80;;;1.80;;
34353;SDS011;20618;0.000;0.000;2023-09-19T05:16:37;5.88;;;1.70;;
34353;SDS011;20618;0.000;0.000;2023-09-19T05:19:03;4.75;;;1.85;;
34353;SDS011;20618;0.000;0.000;2023-09-19T05:21:32;3.67;;;1.70;;
34353;SDS011;20618;0.000;0.000;2023-09-19T05:23:59;3.75;;;1.63;;
34353;SDS011;20618;0.000;0.000;2023-09-19T05:26:25;4.28;;;1.95;;
34353;SDS011;20618;0.000;0.000;2023-09-19T05:28:51;4.07;;;1.73;;
34353;SDS011;20618;0.000;0.000;2023-09-19T05:31:18;4.10;;;1.60;;
34353;SDS011;20618;0.000;0.000;2023-09-19T05:33:44;3.83;;;1.60;;
34353;SDS011;20618;0.000;0.000;2023-09-19T05:36:10;4.35;;;1.42;;
34353;SDS011;20618;0.000;0.000;2023-09-19T05:38:37;3.60;;;1.55;;
34353;SDS011;20618;0.000;0.000;2023-09-19T05:41:06;5.38;;;2.08;;
34353;SDS011;20618;0.000;0.000;2023-09-19T05:43:33;4.68;;;1.58;;
34353;SDS011;20618;0.000;0.000;2023-09-19T05:46:02;3.60;;;1.63;;
34353;SDS011;20618;0.000;0.000;2023-09-19T05:48:28;5.15;;;2.00;;
34353;SDS011;20618;0.000;0.000;2023-09-19T05:50:55;4.25;;;1.50;;
34353;SDS011;20618;0.000;0.000;2023-09-19T05:53:21;5.95;;;1.65;;
34353;SDS011;20618;0.000;0.000;2023-09-19T05:55:48;5.45;;;1.75;;
34353;SDS011;20618;0.000;0.000;2023-09-19T05:58:14;4.32;;;1.67;;
34353;SDS011;20618;0.000;0.000;2023-09-19T06:00:42;4.47;;;1.70;;
34353;SDS011;20618;0.000;0.000;2023-09-19T06:03:09;4.55;;;1.58;;
34353;SDS011;20618;0.000;0.000;2023-09-19T06:05:39;2.83;;;1.40;;
34353;SDS011;20618;0.000;0.000;2023-09-19T06:08:06;2.60;;;1.17;;
34353;SDS011;20618;0.000;0.000;2023-09-19T06:10:36;5.65;;;1.77;;
34353;SDS011;20618;0.000;0.000;2023-09-19T06:13:02;3.92;;;1.48;;
34353;SDS011;20618;0.000;0.000;2023-09-19T06:15:34;30.50;;;3.45;;
34353;SDS011;20618;0.000;0.000;2023-09-19T06:18:01;5.97;;;1.52;;
34353;SDS011;20618;0.000;0.000;2023-09-19T06:20:30;4.88;;;1.50;;
34353;SDS011;20618;0.000;0.000;2023-09-19T06:22:56;8.15;;;1.65;;
34353;SDS011;20618;0.000;0.000;2023-09-19T06:25:23;6.35;;;1.38;;
34353;SDS011;20618;0.000;0.000;2023-09-19T06:27:49;6.32;;;1.52;;
34353;SDS011;20618;0.000;0.000;2023-09-19T06:30:20;5.53;;;1.60;;
34353;SDS011;20618;0.000;0.000;2023-09-19T06:32:48;4.30;;;1.70;;
34353;SDS011;20618;0.000;0.000;2023-09-19T06:35:15;7.03;;;1.77;;
34353;SDS011;20618;0.000;0.000;2023-09-19T06:37:42;5.30;;;1.70;;
34353;SDS011;20618;0.000;0.000;2023-09-19T06:40:09;4.82;;;1.65;;
34353;SDS011;20618;0.000;0.000;2023-09-19T06:42:39;3.60;;;1.40;;
34353;SDS011;20618;0.000;0.000;2023-09-19T06:45:06;4.78;;;1.40;;
34353;SDS011;20618;0.000;0.000;2023-09-19T06:47:32;8.02;;;1.80;;
34353;SDS011;20618;0.000;0.000;2023-09-19T06:49:58;3.08;;;1.30;;
34353;SDS011;20618;0.000;0.000;2023-09-19T06:52:27;7.15;;;1.45;;
34353;SDS011;20618;0.000;0.000;2023-09-19T06:54:53;5.13;;;1.40;;
34353;SDS011;20618;0.000;0.000;2023-09-19T06:57:20;5.22;;;1.42;;
34353;SDS011;20618;0.000;0.000;2023-09-19T06:59:46;7.70;;;1.63;;
34353;SDS011;20618;0.000;0.000;2023-09-19T07:02:12;7.15;;;1.98;;
34353;SDS011;20618;0.000;0.000;2023-09-19T07:04:39;8.05;;;1.73;;
34353;SDS011;20618;0.000;0.000;2023-09-19T07:07:05;7.95;;;1.92;;
34353;SDS011;20618;0.000;0.000;2023-09-19T07:09:34;10.13;;;1.77;;
34353;SDS011;20618;0.000;0.000;2023-09-19T07:12:00;7.88;;;1.63;;
34353;SDS011;20618;0.000;0.000;2023-09-19T07:14:26;10.70;;;1.98;;
34353;SDS011;20618;0.000;0.000;2023-09-19T07:16:53;9.95;;;1.77;;
34353;SDS011;20618;0.000;0.000;2023-09-19T07:19:20;7.10;;;1.85;;
34353;SDS011;20618;0.000;0.000;2023-09-19T07:21:46;8.52;;;2.17;;
34353;SDS011;20618;0.000;0.000;2023-09-19T07:24:15;11.00;;;2.28;;
34353;SDS011;20618;0.000;0.000;2023-09-19T07:26:41;6.72;;;2.20;;
34353;SDS011;20618;0.000;0.000;2023-09-19T07:29:08;11.35;;;2.15;;
34353;SDS011;20618;0.000;0.000;2023-09-19T07:31:34;11.60;;;1.88;;
34353;SDS011;20618;0.000;0.000;2023-09-19T07:34:00;11.02;;;1.90;;
34353;SDS011;20618;0.000;0.000;2023-09-19T07:36:29;12.00;;;1.90;;
34353;SDS011;20618;0.000;0.000;2023-09-19T07:38:55;6.72;;;1.90;;
34353;SDS011;20618;0.000;0.000;2023-09-19T07:41:23;10.35;;;2.17;;
34353;SDS011;20618;0.000;0.000;2023-09-19T07:43:50;7.85;;;2.15;;
34353;SDS011;20618;0.000;0.000;2023-09-19T07:46:17;12.35;;;2.22;;
34353;SDS011;20618;0.000;0.000;2023-09-19T07:48:43;17.05;;;2.58;;
34353;SDS011;20618;0.000;0.000;2023-09-19T07:51:13;14.65;;;2.20;;
34353;SDS011;20618;0.000;0.000;2023-09-19T07:53:41;14.77;;;2.17;;
34353;SDS011;20618;0.000;0.000;2023-09-19T07:56:08;16.00;;;2.22;;
34353;SDS011;20618;0.000;0.000;2023-09-19T07:58:35;13.35;;;2.60;;
34353;SDS011;20618;0.000;0.000;2023-09-19T08:01:04;10.13;;;2.13;;
34353;SDS011;20618;0.000;0.000;2023-09-19T08:03:31;12.45;;;2.17;;
34353;SDS011;20618;0.000;0.000;2023-09-19T08:05:57;9.88;;;2.08;;
34353;SDS011;20618;0.000;0.000;2023-09-19T08:08:24;9.40;;;2.40;;
34353;SDS011;20618;0.000;0.000;2023-09-19T08:10:55;14.20;;;2.08;;
34353;SDS011;20618;0.000;0.000;2023-09-19T08:13:25;16.30;;;2.28;;
34353;SDS011;20618;0.000;0.000;2023-09-19T08:15:51;16.58;;;3.00;;
34353;SDS011;20618;0.000;0.000;2023-09-19T08:18:20;11.48;;;2.17;;
34353;SDS011;20618;0.000;0.000;2023-09-19T08:20:51;12.07;;;2.08;;
34353;SDS011;20618;0.000;0.000;2023-09-19T08:25:48;13.88;;;2.22;;
34353;SDS011;20618;0.000;0.000;2023-09-19T08:28:14;17.13;;;2.47;;
34353;SDS011;20618;0.000;0.000;2023-09-19T08:30:44;14.38;;;2.42;;
34353;SDS011;20618;0.000;0.000;2023-09-19T08:33:11;12.82;;;2.38;;
34353;SDS011;20618;0.000;0.000;2023-09-19T08:35:40;17.88;;;2.90;;
34353;SDS011;20618;0.000;0.000;2023-09-19T08:38:07;15.20;;;2.60;;
34353;SDS011;20618;0.000;0.000;2023-09-19T08:40:36;17.35;;;2.53;;
34353;SDS011;20618;0.000;0.000;2023-09-19T08:43:05;21.73;;;2.67;;
34353;SDS011;20618;0.000;0.000;2023-09-19T08:45:33;21.38;;;2.90;;
34353;SDS011;20618;0.000;0.000;2023-09-19T08:50:31;19.20;;;2.80;;
34353;SDS011;20618;0.000;0.000;2023-09-19T08:53:03;19.67;;;2.40;;
34353;SDS011;20618;0.000;0.000;2023-09-19T08:55:31;15.02;;;3.13;;
34353;SDS011;20618;0.000;0.000;2023-09-19T08:58:03;22.75;;;2.75;;
34353;SDS011;20618;0.000;0.000;2023-09-19T09:00:29;14.70;;;2.30;;
34353;SDS011;20618;0.000;0.000;2023-09-19T09:02:56;14.73;;;2.42;;
34353;SDS011;20618;0.000;0.000;2023-09-19T09:05:23;20.63;;;2.55;;
34353;SDS011;20618;0.000;0.000;2023-09-19T09:07:50;24.10;;;3.55;;
34353;SDS011;20618;0.000;0.000;2023-09-19T09:10:17;15.38;;;2.55;;
34353;SDS011;20618;0.000;0.000;2023-09-19T09:12:48;18.13;;;2.78;;
34353;SDS011;20618;0.000;0.000;2023-09-19T09:15:14;17.65;;;2.15;;
34353;SDS011;20618;0.000;0.000;2023-09-19T09:17:41;17.90;;;2.42;;
34353;SDS011;20618;0.000;0.000;2023-09-19T09:20:09;14.93;;;2.08;;
34353;SDS011;20618;0.000;0.000;2023-09-19T09:22:36;15.68;;;2.78;;
34353;SDS011;20618;0.000;0.000;2023-09-19T09:25:05;11.60;;;2.47;;
34353;SDS011;20618;0.000;0.000;2023-09-19T09:27:31;10.65;;;2.17;;
34353;SDS011;20618;0.000;0.000;2023-09-19T09:29:59;12.88;;;2.20;;
34353;SDS011;20618;0.000;0.000;2023-09-19T09:32:26;17.02;;;2.10;;
34353;SDS011;20618;0.000;0.000;2023-09-19T09:34:55;13.68;;;1.98;;
34353;SDS011;20618;0.000;0.000;2023-09-19T09:37:21;12.20;;;2.25;;
34353;SDS011;20618;0.000;0.000;2023-09-19T09:39:53;19.02;;;2.58;;
34353;SDS011;20618;0.000;0.000;2023-09-19T09:42:34;13.95;;;2.60;;
34353;SDS011;20618;0.000;0.000;2023-09-19T09:47:42;15.52;;;2.22;;
34353;SDS011;20618;0.000;0.000;2023-09-19T09:50:23;12.45;;;2.28;;
34353;SDS011;20618;0.000;0.000;2023-09-19T09:52:54;12.13;;;2.40;;
34353;SDS011;20618;0.000;0.000;2023-09-19T09:55:27;12.68;;;2.33;;
34353;SDS011;20618;0.000;0.000;2023-09-19T10:00:51;15.00;;;2.20;;
34353;SDS011;20618;0.000;0.000;2023-09-19T10:03:24;15.57;;;2.50;;
34353;SDS011;20618;0.000;0.000;2023-09-19T10:05:57;18.67;;;2.60;;
34353;SDS011;20618;0.000;0.000;2023-09-19T10:08:23;12.27;;;1.90;;
34353;SDS011;20618;0.000;0.000;2023-09-19T10:10:51;13.10;;;2.65;;
34353;SDS011;20618;0.000;0.000;2023-09-19T10:13:17;15.02;;;2.50;;
34353;SDS011;20618;0.000;0.000;2023-09-19T10:15:50;13.57;;;2.03;;
34353;SDS011;20618;0.000;0.000;2023-09-19T10:18:21;15.40;;;3.30;;
34353;SDS011;20618;0.000;0.000;2023-09-19T10:20:48;13.55;;;2.10;;
34353;SDS011;20618;0.000;0.000;2023-09-19T10:23:16;19.92;;;2.92;;
34353;SDS011;20618;0.000;0.000;2023-09-19T10:25:47;9.57;;;2.30;;
34353;SDS011;20618;0.000;0.000;2023-09-19T10:28:16;16.38;;;2.80;;
34353;SDS011;20618;0.000;0.000;2023-09-19T10:30:47;12.48;;;2.00;;
34353;SDS011;20618;0.000;0.000;2023-09-19T10:33:15;9.55;;;1.80;;
34353;SDS011;20618;0.000;0.000;2023-09-19T10:35:42;11.90;;;1.67;;
34353;SDS011;20618;0.000;0.000;2023-09-19T10:38:12;15.32;;;2.17;;
34353;SDS011;20618;0.000;0.000;2023-09-19T10:40:39;12.20;;;2.42;;
34353;SDS011;20618;0.000;0.000;2023-09-19T10:43:11;14.02;;;2.25;;
34353;SDS011;20618;0.000;0.000;2023-09-19T10:45:37;17.25;;;2.00;;
34353;SDS011;20618;0.000;0.000;2023-09-19T10:48:04;13.50;;;1.95;;
34353;SDS011;20618;0.000;0.000;2023-09-19T10:50:36;10.85;;;1.88;;
34353;SDS011;20618;0.000;0.000;2023-09-19T10:53:09;13.70;;;2.22;;
34353;SDS011;20618;0.000;0.000;2023-09-19T10:55:37;11.15;;;2.30;;
34353;SDS011;20618;0.000;0.000;2023-09-19T10:58:04;13.57;;;1.80;;
34353;SDS011;20618;0.000;0.000;2023-09-19T11:00:50;13.57;;;2.40;;
34353;SDS011;20618;0.000;0.000;2023-09-19T11:03:18;14.18;;;2.40;;
34353;SDS011;20618;0.000;0.000;2023-09-19T11:06:02;12.88;;;2.53;;
34353;SDS011;20618;0.000;0.000;2023-09-19T11:08:30;13.25;;;2.13;;
34353;SDS011;20618;0.000;0.000;2023-09-19T11:10:57;17.65;;;2.22;;
34353;SDS011;20618;0.000;0.000;2023-09-19T11:13:25;11.73;;;2.00;;
34353;SDS011;20618;0.000;0.000;2023-09-19T11:26:41;15.05;;;2.30;;
34353;SDS011;20618;0.000;0.000;2023-09-19T11:29:29;10.98;;;2.28;;
34353;SDS011;20618;0.000;0.000;2023-09-19T11:31:56;14.15;;;2.42;;
34353;SDS011;20618;0.000;0.000;2023-09-19T11:37:03;13.10;;;2.05;;
34353;SDS011;20618;0.000;0.000;2023-09-19T11:39:29;9.10;;;1.77;;
34353;SDS011;20618;0.000;0.000;2023-09-19T11:41:55;16.73;;;2.60;;
34353;SDS011;20618;0.000;0.000;2023-09-19T11:44:31;19.90;;;2.47;;
34353;SDS011;20618;0.000;0.000;2023-09-19T11:46:59;20.08;;;2.85;;
34353;SDS011;20618;0.000;0.000;2023-09-19T11:49:29;10.88;;;2.15;;
34353;SDS011;20618;0.000;0.000;2023-09-19T11:51:57;23.40;;;2.58;;
34353;SDS011;20618;0.000;0.000;2023-09-19T11:54:26;16.00;;;2.75;;
34353;SDS011;20618;0.000;0.000;2023-09-19T11:56:57;15.50;;;2.88;;
34353;SDS011;20618;0.000;0.000;2023-09-19T11:59:24;15.32;;;2.55;;
34353;SDS011;20618;0.000;0.000;2023-09-19T12:02:01;18.15;;;2.38;;
34353;SDS011;20618;0.000;0.000;2023-09-19T12:04:34;15.25;;;3.03;;
34353;SDS011;20618;0.000;0.000;2023-09-19T12:07:05;15.57;;;2.67;;
34353;SDS011;20618;0.000;0.000;2023-09-19T12:09:36;17.30;;;2.83;;
34353;SDS011;20618;0.000;0.000;2023-09-19T12:12:03;19.20;;;2.75;;
34353;SDS011;20618;0.000;0.000;2023-09-19T12:14:29;16.50;;;2.55;;
34353;SDS011;20618;0.000;0.000;2023-09-19T12:16:57;24.38;;;3.28;;
34353;SDS011;20618;0.000;0.000;2023-09-19T12:19:25;18.40;;;2.70;;
34353;SDS011;20618;0.000;0.000;2023-09-19T12:21:57;18.80;;;3.33;;
34353;SDS011;20618;0.000;0.000;2023-09-19T12:24:24;25.35;;;3.15;;
34353;SDS011;20618;0.000;0.000;2023-09-19T12:26:51;23.77;;;2.30;;
34353;SDS011;20618;0.000;0.000;2023-09-19T12:29:19;19.42;;;2.58;;
34353;SDS011;20618;0.000;0.000;2023-09-19T12:31:54;17.50;;;2.67;;
34353;SDS011;20618;0.000;0.000;2023-09-19T12:34:23;21.02;;;2.55;;
34353;SDS011;20618;0.000;0.000;2023-09-19T12:37:11;14.32;;;2.90;;
34353;SDS011;20618;0.000;0.000;2023-09-19T12:39:38;16.83;;;2.55;;
34353;SDS011;20618;0.000;0.000;2023-09-19T12:42:07;16.05;;;2.53;;
34353;SDS011;20618;0.000;0.000;2023-09-19T12:44:35;18.77;;;2.88;;
34353;SDS011;20618;0.000;0.000;2023-09-19T12:47:08;16.75;;;2.33;;
34353;SDS011;20618;0.000;0.000;2023-09-19T12:49:34;18.63;;;2.78;;
34353;SDS011;20618;0.000;0.000;2023-09-19T12:52:00;19.48;;;2.58;;
34353;SDS011;20618;0.000;0.000;2023-09-19T12:54:48;16.13;;;2.65;;
34353;SDS011;20618;0.000;0.000;2023-09-19T12:57:23;26.40;;;3.08;;
34353;SDS011;20618;0.000;0.000;2023-09-19T12:59:51;17.17;;;2.75;;
34353;SDS011;20618;0.000;0.000;2023-09-19T13:02:18;25.38;;;3.45;;
34353;SDS011;20618;0.000;0.000;2023-09-19T13:04:52;19.05;;;3.08;;
34353;SDS011;20618;0.000;0.000;2023-09-19T13:10:04;15.40;;;2.88;;
34353;SDS011;20618;0.000;0.000;2023-09-19T13:12:35;15.93;;;2.63;;
34353;SDS011;20618;0.000;0.000;2023-09-19T13:17:45;19.48;;;2.53;;
34353;SDS011;20618;0.000;0.000;2023-09-19T13:20:24;23.20;;;3.28;;
34353;SDS011;20618;0.000;0.000;2023-09-19T13:22:53;22.65;;;2.92;;
34353;SDS011;20618;0.000;0.000;2023-09-19T13:25:25;26.75;;;2.95;;
34353;SDS011;20618;0.000;0.000;2023-09-19T13:27:53;19.13;;;2.75;;
34353;SDS011;20618;0.000;0.000;2023-09-19T13:30:21;22.30;;;2.45;;
34353;SDS011;20618;0.000;0.000;2023-09-19T13:32:48;20.80;;;2.65;;
34353;SDS011;20618;0.000;0.000;2023-09-19T13:35:15;19.40;;;2.88;;
34353;SDS011;20618;0.000;0.000;2023-09-19T13:37:42;16.88;;;2.38;;
34353;SDS011;20618;0.000;0.000;2023-09-19T13:40:11;14.23;;;2.20;;
34353;SDS011;20618;0.000;0.000;2023-09-19T13:42:38;19.30;;;2.30;;
34353;SDS011;20618;0.000;0.000;2023-09-19T13:45:05;17.25;;;2.75;;
34353;SDS011;20618;0.000;0.000;2023-09-19T13:47:31;23.05;;;2.70;;
34353;SDS011;20618;0.000;0.000;2023-09-19T13:49:58;16.45;;;2.35;;
34353;SDS011;20618;0.000;0.000;2023-09-19T13:52:24;16.52;;;2.63;;
34353;SDS011;20618;0.000;0.000;2023-09-19T13:54:53;11.70;;;2.45;;
34353;SDS011;20618;0.000;0.000;2023-09-19T13:57:24;18.55;;;2.90;;
34353;SDS011;20618;0.000;0.000;2023-09-19T13:59:53;17.85;;;2.63;;
34353;SDS011;20618;0.000;0.000;2023-09-19T14:02:20;21.63;;;2.28;;
34353;SDS011;20618;0.000;0.000;2023-09-19T14:04:48;19.92;;;2.85;;
34353;SDS011;20618;0.000;0.000;2023-09-19T14:07:15;22.40;;;3.05;;
34353;SDS011;20618;0.000;0.000;2023-09-19T14:09:42;20.38;;;2.25;;
34353;SDS011;20618;0.000;0.000;2023-09-19T14:12:09;22.05;;;2.78;;
34353;SDS011;20618;0.000;0.000;2023-09-19T14:14:35;23.45;;;2.67;;
34353;SDS011;20618;0.000;0.000;2023-09-19T14:17:02;13.88;;;2.00;;
34353;SDS011;20618;0.000;0.000;2023-09-19T14:19:29;22.40;;;2.95;;
34353;SDS011;20618;0.000;0.000;2023-09-19T14:21:55;20.90;;;2.42;;
34353;SDS011;20618;0.000;0.000;2023-09-19T14:24:22;24.73;;;3.25;;
34353;SDS011;20618;0.000;0.000;2023-09-19T14:26:48;19.38;;;2.50;;
34353;SDS011;20618;0.000;0.000;2023-09-19T14:29:15;24.85;;;3.47;;
34353;SDS011;20618;0.000;0.000;2023-09-19T14:31:42;28.48;;;3.38;;
34353;SDS011;20618;0.000;0.000;2023-09-19T14:34:09;19.55;;;2.70;;
34353;SDS011;20618;0.000;0.000;2023-09-19T14:36:35;25.27;;;3.03;;
34353;SDS011;20618;0.000;0.000;2023-09-19T14:39:01;21.60;;;2.50;;
34353;SDS011;20618;0.000;0.000;2023-09-19T14:41:28;21.75;;;2.90;;
34353;SDS011;20618;0.000;0.000;2023-09-19T14:43:56;19.52;;;2.95;;
34353;SDS011;20618;0.000;0.000;2023-09-19T14:46:22;25.40;;;2.83;;
34353;SDS011;20618;0.000;0.000;2023-09-19T14:48:50;14.77;;;3.15;;
34353;SDS011;20618;0.000;0.000;2023-09-19T14:51:17;21.83;;;2.90;;
34353;SDS011;20618;0.000;0.000;2023-09-19T14:53:44;21.48;;;3.22;;
34353;SDS011;20618;0.000;0.000;2023-09-19T14:56:12;19.63;;;2.78;;
34353;SDS011;20618;0.000;0.000;2023-09-19T14:58:42;24.95;;;2.90;;
34353;SDS011;20618;0.000;0.000;2023-09-19T15:01:09;18.98;;;2.90;;
34353;SDS011;20618;0.000;0.000;2023-09-19T15:03:36;21.70;;;2.80;;
34353;SDS011;20618;0.000;0.000;2023-09-19T15:06:05;20.60;;;2.78;;
34353;SDS011;20618;0.000;0.000;2023-09-19T15:08:35;26.88;;;3.10;;
34353;SDS011;20618;0.000;0.000;2023-09-19T15:11:06;24.65;;;2.80;;
34353;SDS011;20618;0.000;0.000;2023-09-19T15:13:32;20.23;;;2.70;;
34353;SDS011;20618;0.000;0.000;2023-09-19T15:15:59;13.45;;;1.80;;
34353;SDS011;20618;0.000;0.000;2023-09-19T15:18:26;17.40;;;2.30;;
34353;SDS011;20618;0.000;0.000;2023-09-19T15:20:52;18.65;;;2.55;;
34353;SDS011;20618;0.000;0.000;2023-09-19T15:23:19;14.05;;;2.17;;
34353;SDS011;20618;0.000;0.000;2023-09-19T15:25:49;19.20;;;2.45;;
34353;SDS011;20618;0.000;0.000;2023-09-19T15:28:15;20.40;;;2.75;;
34353;SDS011;20618;0.000;0.000;2023-09-19T15:30:41;15.50;;;3.00;;
34353;SDS011;20618;0.000;0.000;2023-09-19T15:33:07;20.75;;;2.85;;
34353;SDS011;20618;0.000;0.000;2023-09-19T15:35:33;14.18;;;1.92;;
34353;SDS011;20618;0.000;0.000;2023-09-19T15:38:02;18.08;;;2.85;;
34353;SDS011;20618;0.000;0.000;2023-09-19T15:40:28;20.77;;;3.13;;
34353;SDS011;20618;0.000;0.000;2023-09-19T15:42:54;19.77;;;2.50;;